Time;durP1;ratioP1;P1;durP2;ratioP2;P2;SDS_P1;SDS_P2;PMS_P1;PMS_P2;Temp;Humidity;BMP_temperature;BMP_pressure;BME280_temperature;BME280_humidity;BME280_pressure;Samples;Min_cycle;Max_cycle;Signal;HPM_P1;HPM_P2
2023/01/22 00:00:04;;;;;;;5.74;2.29;;;;;;;2.91;55.71;102372.21;438740;118;922646;-70
2023/01/22 00:01:11;;;;;;;5.16;2.49;;;;;;;2.92;55.55;102363.13;442878;119;922556;-70
2023/01/22 00:02:14;;;;;;;2.44;2.08;;;;;;;2.93;55.52;102378.31;445648;119;922650;-70
2023/01/22 00:03:17;;;;;;;4.54;2.64;;;;;;;2.95;55.39;102370.12;446478;119;922482;-70
2023/01/22 00:04:20;;;;;;;5.99;2.39;;;;;;;2.97;55.42;102370.01;446476;118;922491;-70
2023/01/22 00:05:24;;;;;;;6.09;2.76;;;;;;;2.98;55.43;102372.55;448228;117;923059;-69
2023/01/22 00:06:29;;;;;;;3.96;2.43;;;;;;;3.00;55.38;102372.44;446779;117;922582;-71
2023/01/22 00:07:32;;;;;;;4.25;2.61;;;;;;;3.01;55.35;102368.77;446321;119;922609;-70
2023/01/22 00:08:36;;;;;;;5.98;3.06;;;;;;;3.02;55.20;102365.11;446478;119;922562;-70
2023/01/22 00:09:40;;;;;;;5.47;2.31;;;;;;;3.02;55.10;102373.19;446372;118;922523;-69
2023/01/22 00:10:54;;;;;;;2.45;2.12;;;;;;;3.02;55.15;102368.66;449659;117;930593;-71
2023/01/22 00:11:57;;;;;;;3.00;2.22;;;;;;;3.02;55.14;102374.05;451631;117;930380;-71
2023/01/22 00:13:00;;;;;;;4.70;2.54;;;;;;;3.03;55.10;102369.52;440578;120;922733;-71
2023/01/22 00:14:04;;;;;;;3.16;2.23;;;;;;;3.03;54.96;102380.30;440575;120;930540;-70
2023/01/22 00:15:07;;;;;;;6.29;2.33;;;;;;;3.02;54.95;102374.05;436301;119;922661;-70
2023/01/22 00:16:16;;;;;;;4.38;2.63;;;;;;;3.01;54.89;102377.72;433952;120;922639;-71
2023/01/22 00:17:19;;;;;;;3.15;2.04;;;;;;;2.99;54.70;102385.05;451158;117;922485;-71
2023/01/22 00:18:22;;;;;;;6.61;2.96;;;;;;;2.98;54.67;102379.81;451281;117;922561;-70
2023/01/22 00:19:25;;;;;;;4.06;2.26;;;;;;;2.94;54.72;102380.03;451289;115;922501;-70
2023/01/22 00:20:28;;;;;;;9.09;2.76;;;;;;;2.96;54.75;102384.45;449410;117;922527;-70
2023/01/22 00:21:32;;;;;;;5.53;2.44;;;;;;;2.96;54.77;102384.45;451330;117;922572;-71
2023/01/22 00:22:36;;;;;;;7.39;2.69;;;;;;;2.97;54.80;102386.17;451292;117;922626;-70
2023/01/22 00:23:39;;;;;;;3.46;2.49;;;;;;;2.96;54.79;102387.14;449334;117;922617;-71
2023/01/22 00:24:43;;;;;;;5.79;2.26;;;;;;;2.96;54.61;102387.14;446097;117;922484;-70
2023/01/22 00:25:46;;;;;;;4.07;2.22;;;;;;;2.96;54.58;102384.45;438062;118;930687;-71
2023/01/22 00:26:49;;;;;;;3.77;2.47;;;;;;;2.94;54.66;102388.12;447164;117;922536;-70
2023/01/22 00:27:52;;;;;;;4.12;2.39;;;;;;;2.93;54.59;102394.48;442719;119;922482;-70
2023/01/22 00:28:58;;;;;;;4.13;2.74;;;;;;;2.94;54.63;102385.42;439890;120;922637;-70
2023/01/22 00:30:01;;;;;;;5.33;2.29;;;;;;;2.94;54.60;102393.51;443836;117;930866;-70
2023/01/22 00:31:05;;;;;;;3.59;2.19;;;;;;;2.93;54.38;102388.23;435387;120;923182;-70
2023/01/22 00:32:09;;;;;;;4.89;2.43;;;;;;;2.92;54.39;102394.62;438355;120;922737;-71
2023/01/22 00:33:12;;;;;;;4.98;2.20;;;;;;;2.92;54.53;102398.14;431914;123;922530;-70
2023/01/22 00:34:15;;;;;;;10.96;2.84;;;;;;;2.93;54.55;102394.48;440645;118;922625;-69
2023/01/22 00:35:18;;;;;;;4.45;2.43;;;;;;;2.93;54.45;102402.56;443124;118;922712;-69
2023/01/22 00:36:21;;;;;;;5.25;2.66;;;;;;;2.94;54.43;102404.28;442385;117;922493;-70
2023/01/22 00:37:24;;;;;;;6.62;2.72;;;;;;;2.93;54.31;102396.31;445933;118;923031;-71
2023/01/22 00:38:27;;;;;;;3.93;2.64;;;;;;;2.92;54.34;102400.02;445094;118;922742;-70
2023/01/22 00:39:31;;;;;;;3.04;2.43;;;;;;;2.92;54.44;102397.32;439880;120;922518;-70
2023/01/22 00:40:37;;;;;;;5.53;2.36;;;;;;;2.92;54.33;102392.76;447661;117;922521;-71
2023/01/22 00:41:41;;;;;;;4.67;2.29;;;;;;;2.93;54.44;102394.48;447945;118;930499;-71
2023/01/22 00:42:44;;;;;;;4.71;2.26;;;;;;;2.94;54.42;102404.28;446525;118;922825;-69
2023/01/22 00:43:48;;;;;;;4.42;1.98;;;;;;;2.96;54.51;102398.78;441734;118;923066;-71
2023/01/22 00:44:53;;;;;;;4.31;2.36;;;;;;;2.98;54.42;102404.06;444314;118;930524;-70
2023/01/22 00:45:56;;;;;;;3.21;2.31;;;;;;;2.99;54.42;102397.66;451181;117;922512;-69
2023/01/22 00:46:59;;;;;;;7.75;2.87;;;;;;;2.99;54.40;102398.52;451201;117;922580;-70
2023/01/22 00:48:03;;;;;;;7.57;3.16;;;;;;;3.01;54.48;102401.97;451301;117;922562;-70
2023/01/22 00:49:06;;;;;;;6.28;3.02;;;;;;;3.01;54.44;102404.66;451190;115;922982;-71
2023/01/22 00:50:10;;;;;;;5.53;3.28;;;;;;;3.01;54.34;102407.36;449321;117;930508;-70
2023/01/22 00:51:14;;;;;;;6.54;3.14;;;;;;;3.01;54.32;102407.36;451173;117;922539;-70
2023/01/22 00:52:18;;;;;;;4.92;3.28;;;;;;;3.02;54.29;102400.14;443700;117;922513;-71
2023/01/22 00:53:21;;;;;;;5.92;2.51;;;;;;;3.02;54.36;102408.22;443718;119;922476;-71
2023/01/22 00:54:24;;;;;;;4.28;2.39;;;;;;;3.03;54.26;102408.11;443684;119;922858;-70
2023/01/22 00:55:27;;;;;;;4.37;2.55;;;;;;;3.03;54.22;102399.16;448174;116;922649;-70
2023/01/22 00:56:31;;;;;;;2.67;2.07;;;;;;;3.03;54.16;102408.11;443987;116;922529;-71
2023/01/22 00:57:34;;;;;;;4.41;2.21;;;;;;;3.03;54.15;102407.25;451176;117;922553;-70
2023/01/22 00:58:37;;;;;;;2.64;2.28;;;;;;;3.04;54.21;102412.48;450163;117;922948;-71
2023/01/22 00:59:40;;;;;;;4.04;1.92;;;;;;;3.04;54.07;102406.24;450222;117;922648;-71
2023/01/22 01:00:44;;;;;;;3.02;2.13;;;;;;;3.03;54.05;102401.86;452355;116;922568;-70
2023/01/22 01:01:47;;;;;;;3.84;2.28;;;;;;;3.01;53.95;102403.80;464790;114;922950;-70
2023/01/22 01:04:13;;;;;;;6.43;2.73;;;;;;;2.99;54.00;102401.22;458816;114;922856;-70
2023/01/22 01:05:16;;;;;;;3.85;2.05;;;;;;;2.98;54.07;102394.11;459580;113;922607;-70
2023/01/22 01:06:21;;;;;;;6.12;2.44;;;;;;;2.99;54.04;102405.75;458350;114;922564;-69
2023/01/22 01:07:24;;;;;;;4.21;2.58;;;;;;;2.99;54.03;102398.52;456166;113;930580;-70
2023/01/22 01:08:29;;;;;;;8.63;2.62;;;;;;;2.99;54.09;102392.28;459987;115;930884;-70
2023/01/22 01:09:33;;;;;;;4.08;2.34;;;;;;;2.99;53.98;102390.44;456382;114;922508;-70
2023/01/22 01:10:36;;;;;;;4.21;2.37;;;;;;;3.00;53.96;102388.61;459390;114;922520;-70
2023/01/22 01:11:39;;;;;;;4.90;2.54;;;;;;;3.00;53.94;102388.61;455614;115;922522;-69
2023/01/22 01:12:42;;;;;;;4.32;2.34;;;;;;;3.01;53.92;102387.64;458459;114;923439;-70
2023/01/22 01:13:45;;;;;;;5.04;2.75;;;;;;;3.00;53.96;102389.47;456157;115;922584;-70
2023/01/22 01:14:49;;;;;;;5.40;2.25;;;;;;;3.01;54.00;102387.64;457381;114;922518;-70
2023/01/22 01:15:58;;;;;;;5.34;2.55;;;;;;;3.01;53.89;102388.50;458641;113;922473;-69
2023/01/22 01:17:01;;;;;;;4.07;2.54;;;;;;;3.01;53.91;102391.19;458075;114;922566;-70
2023/01/22 01:18:04;;;;;;;3.47;2.32;;;;;;;3.00;53.80;102381.39;457305;113;922679;-69
2023/01/22 01:19:09;;;;;;;5.14;2.71;;;;;;;2.99;53.85;102381.50;456939;116;922523;-70
2023/01/22 01:20:12;;;;;;;5.41;2.30;;;;;;;2.99;53.84;102378.80;459980;114;922595;-69
2023/01/22 01:21:16;;;;;;;8.20;2.49;;;;;;;2.99;53.72;102382.36;464319;114;922754;-69
2023/01/22 01:22:20;;;;;;;6.18;2.08;;;;;;;3.00;53.83;102391.30;456875;115;922585;-70
2023/01/22 01:23:24;;;;;;;5.02;2.48;;;;;;;3.00;53.83;102396.70;459506;115;922485;-69
2023/01/22 01:24:27;;;;;;;4.06;2.19;;;;;;;2.98;53.78;102383.34;459376;115;922438;-71
2023/01/22 01:25:30;;;;;;;4.44;2.01;;;;;;;2.98;53.78;102383.34;460592;113;922556;-70
2023/01/22 01:26:34;;;;;;;8.59;2.34;;;;;;;2.99;53.69;102386.89;455412;116;922881;-70
2023/01/22 01:27:37;;;;;;;5.16;2.89;;;;;;;2.99;53.69;102390.44;455495;115;922555;-70
2023/01/22 01:28:41;;;;;;;4.34;2.95;;;;;;;2.99;53.76;102385.05;457156;114;922503;-70
2023/01/22 01:29:44;;;;;;;5.35;3.41;;;;;;;3.00;53.77;102394.86;457994;114;922478;-70
2023/01/22 01:30:48;;;;;;;5.37;3.06;;;;;;;3.02;53.77;102394.75;459964;113;922940;-70
2023/01/22 01:31:53;;;;;;;4.36;2.87;;;;;;;3.03;53.84;102393.77;458380;114;930482;-70
2023/01/22 01:32:57;;;;;;;6.39;3.78;;;;;;;3.03;53.74;102391.94;458872;115;922553;-69
2023/01/22 01:34:00;;;;;;;8.06;4.35;;;;;;;3.05;53.74;102392.66;455647;116;922590;-70
2023/01/22 01:35:05;;;;;;;6.49;3.96;;;;;;;3.06;53.81;102393.52;457513;113;922465;-69
2023/01/22 01:36:14;;;;;;;8.93;4.78;;;;;;;3.06;53.75;102386.29;464855;114;930574;-70
2023/01/22 01:37:17;;;;;;;7.55;4.24;;;;;;;3.06;53.73;102391.68;460011;114;930483;-70
2023/01/22 01:38:20;;;;;;;12.01;5.38;;;;;;;3.07;53.66;102385.31;459888;114;922887;-70
2023/01/22 01:39:23;;;;;;;6.46;4.51;;;;;;;3.06;53.70;102391.68;458125;115;922856;-69
2023/01/22 01:40:27;;;;;;;6.80;4.66;;;;;;;3.07;53.60;102387.16;462241;114;922690;-69
2023/01/22 01:41:30;;;;;;;5.31;4.17;;;;;;;3.06;53.51;102391.68;456702;114;922544;-69
2023/01/22 01:42:37;;;;;;;5.62;3.28;;;;;;;3.06;53.54;102398.91;462833;114;922487;-70
2023/01/22 01:43:41;;;;;;;10.24;3.69;;;;;;;3.04;53.58;102393.63;458868;114;922477;-70
2023/01/22 01:44:44;;;;;;;6.76;3.98;;;;;;;3.03;53.61;102391.08;458266;114;922851;-70
2023/01/22 01:45:47;;;;;;;5.76;3.26;;;;;;;3.02;53.56;102387.52;462776;114;930476;-69
2023/01/22 01:46:56;;;;;;;3.42;3.13;;;;;;;3.01;53.58;102390.33;464174;114;922857;-70
2023/01/22 01:48:11;;;;;;;4.19;2.65;;;;;;;3.02;53.63;102383.97;455246;116;922670;-70
2023/01/22 01:49:30;;;;;;;8.47;3.46;;;;;;;3.01;53.58;102385.80;460179;115;922550;-70
2023/01/22 01:50:35;;;;;;;5.22;2.64;;;;;;;3.01;53.53;102387.64;461873;113;922436;-70
2023/01/22 01:51:38;;;;;;;4.71;2.51;;;;;;;2.98;53.53;102386.03;463100;114;922425;-70
2023/01/22 01:52:41;;;;;;;5.27;2.08;;;;;;;2.98;53.61;102385.20;462859;114;922819;-71
2023/01/22 01:53:49;;;;;;;7.10;2.66;;;;;;;2.98;53.68;102387.89;462472;114;922715;-70
2023/01/22 01:54:55;;;;;;;4.03;2.58;;;;;;;2.97;53.59;102384.34;460579;114;930582;-71
2023/01/22 01:56:00;;;;;;;5.47;2.24;;;;;;;2.97;53.68;102383.48;463962;113;922877;-69
2023/01/22 01:57:12;;;;;;;5.08;2.74;;;;;;;2.94;53.64;102377.34;462444;114;922640;-70
2023/01/22 01:58:20;;;;;;;3.53;2.14;;;;;;;2.94;53.66;102385.42;459688;115;922937;-69
2023/01/22 01:59:23;;;;;;;5.86;2.33;;;;;;;2.94;53.69;102384.56;457262;113;922948;-70
2023/01/22 02:00:29;;;;;;;4.53;2.45;;;;;;;2.94;53.84;102384.56;462723;113;922615;-70
2023/01/22 02:01:33;;;;;;;4.63;2.51;;;;;;;2.93;53.70;102383.70;461135;115;922636;-70
2023/01/22 02:02:36;;;;;;;5.10;2.54;;;;;;;2.95;53.79;102386.28;456971;116;922540;-70
2023/01/22 02:03:40;;;;;;;3.81;2.58;;;;;;;2.93;53.83;102383.70;456975;114;930506;-70
2023/01/22 02:04:43;;;;;;;6.28;2.86;;;;;;;2.94;53.87;102385.42;461297;114;922561;-70
2023/01/22 02:05:46;;;;;;;3.73;2.34;;;;;;;2.95;53.90;102388.98;462529;114;922603;-70
2023/01/22 02:06:49;;;;;;;5.46;2.65;;;;;;;2.97;53.95;102389.73;460665;114;922524;-70
2023/01/22 02:07:53;;;;;;;6.49;2.79;;;;;;;2.98;53.96;102390.59;456779;114;922602;-70
2023/01/22 02:08:56;;;;;;;3.83;2.27;;;;;;;2.99;53.99;102385.05;456389;114;922893;-69
2023/01/22 02:10:00;;;;;;;4.95;2.36;;;;;;;3.01;53.90;102388.50;463308;113;922579;-70
2023/01/22 02:11:03;;;;;;;5.22;2.62;;;;;;;3.01;53.86;102385.80;455819;116;922560;-70
2023/01/22 02:12:07;;;;;;;8.75;2.41;;;;;;;3.02;53.89;102383.97;455305;116;922446;-69
2023/01/22 02:13:14;;;;;;;7.29;2.50;;;;;;;3.02;53.85;102382.13;457815;114;926260;-70
2023/01/22 02:14:21;;;;;;;6.67;2.05;;;;;;;3.02;53.86;102383.97;456959;113;923580;-70
2023/01/22 02:15:24;;;;;;;5.49;2.23;;;;;;;3.02;53.89;102392.05;459996;113;922981;-70
2023/01/22 02:16:27;;;;;;;6.74;2.21;;;;;;;3.02;53.85;102378.58;456954;116;922581;-70
2023/01/22 02:17:31;;;;;;;7.61;2.13;;;;;;;3.03;53.91;102385.69;457148;115;930539;-70
2023/01/22 02:18:34;;;;;;;5.56;2.13;;;;;;;3.05;53.96;102389.09;459866;115;922486;-69
2023/01/22 02:19:38;;;;;;;3.11;2.16;;;;;;;3.05;53.95;102387.27;460713;113;922880;-72
2023/01/22 02:20:54;;;;;;;5.77;2.47;;;;;;;3.06;53.91;102382.73;463072;113;922478;-70
2023/01/22 02:21:57;;;;;;;7.72;2.63;;;;;;;3.06;53.83;102380.91;459928;114;922593;-70
2023/01/22 02:23:01;;;;;;;3.83;2.22;;;;;;;3.04;53.79;102376.59;456806;114;922986;-70
2023/01/22 02:24:10;;;;;;;4.19;1.99;;;;;;;3.04;53.80;102381.98;452010;117;930664;-70
2023/01/22 02:25:14;;;;;;;3.72;2.13;;;;;;;3.04;53.84;102376.59;455014;114;923131;-70
2023/01/22 02:26:19;;;;;;;4.69;2.16;;;;;;;3.04;53.99;102382.84;464949;114;922542;-71
2023/01/22 02:27:22;;;;;;;6.18;2.59;;;;;;;3.05;53.97;102381.02;458343;114;922519;-71
2023/01/22 02:28:26;;;;;;;7.26;2.57;;;;;;;3.07;54.04;102389.84;455353;116;922734;-70
2023/01/22 02:29:30;;;;;;;5.85;2.29;;;;;;;3.07;53.98;102377.23;456987;114;922402;-71
2023/01/22 02:30:34;;;;;;;6.11;2.16;;;;;;;3.07;53.98;102385.31;461721;113;922850;-70
2023/01/22 02:31:39;;;;;;;4.86;2.46;;;;;;;3.07;53.82;102376.38;459317;115;930459;-71
2023/01/22 02:32:42;;;;;;;2.69;2.12;;;;;;;3.07;53.82;102381.77;460085;115;922603;-72
2023/01/22 02:33:45;;;;;;;6.79;2.30;;;;;;;3.05;53.76;102387.27;456508;115;922527;-69
2023/01/22 02:34:49;;;;;;;4.91;2.52;;;;;;;3.05;53.84;102372.93;446911;116;922633;-70
2023/01/22 02:35:53;;;;;;;3.13;2.00;;;;;;;3.05;53.83;102372.93;454190;116;923123;-70
2023/01/22 02:36:56;;;;;;;5.46;2.19;;;;;;;3.05;53.82;102379.18;457064;116;923552;-71
2023/01/22 02:37:59;;;;;;;9.05;2.54;;;;;;;3.07;53.81;102381.77;457459;114;922540;-70
2023/01/22 02:39:03;;;;;;;5.90;2.54;;;;;;;3.05;53.90;102376.48;457008;116;922600;-70
2023/01/22 02:40:08;;;;;;;5.04;2.16;;;;;;;3.06;53.83;102380.04;458483;113;922528;-70
2023/01/22 02:41:12;;;;;;;6.46;2.15;;;;;;;3.04;53.91;102376.59;459215;115;930465;-71
2023/01/22 02:42:15;;;;;;;4.20;2.47;;;;;;;3.06;53.95;102380.04;460312;115;922586;-70
2023/01/22 02:43:18;;;;;;;4.94;2.21;;;;;;;3.06;53.96;102380.91;461650;114;922774;-70
2023/01/22 02:44:21;;;;;;;7.32;2.55;;;;;;;3.06;53.93;102377.34;459946;114;922484;-69
2023/01/22 02:45:25;;;;;;;6.42;2.69;;;;;;;3.06;53.96;102380.04;457269;113;922597;-70
2023/01/22 02:46:29;;;;;;;5.79;2.32;;;;;;;3.05;53.86;102383.70;457418;114;930387;-70
2023/01/22 02:47:34;;;;;;;4.05;2.51;;;;;;;3.04;53.75;102376.59;459999;114;922902;-71
2023/01/22 02:48:38;;;;;;;3.08;2.19;;;;;;;3.02;53.72;102379.44;464873;114;922486;-71
2023/01/22 02:49:41;;;;;;;4.80;2.64;;;;;;;3.00;53.77;102381.39;462913;114;922520;-72
2023/01/22 02:50:44;;;;;;;6.96;3.27;;;;;;;3.01;53.84;102377.72;458604;113;922702;-71
2023/01/22 02:51:48;;;;;;;4.36;2.99;;;;;;;3.00;53.88;102376.00;446412;118;922580;-69
2023/01/22 02:52:51;;;;;;;8.34;3.01;;;;;;;3.02;53.84;102374.05;446866;116;930579;-70
2023/01/22 02:53:54;;;;;;;6.91;2.99;;;;;;;3.02;53.92;102374.05;455439;115;922484;-70
2023/01/22 02:54:58;;;;;;;10.07;3.49;;;;;;;3.03;53.84;102380.30;455742;114;923593;-70
2023/01/22 02:56:06;;;;;;;5.69;3.02;;;;;;;3.03;53.81;102374.91;461151;114;922819;-69
2023/01/22 02:57:10;;;;;;;4.34;2.36;;;;;;;3.02;53.80;102374.05;465021;114;922533;-69
2023/01/22 02:58:16;;;;;;;5.30;2.76;;;;;;;3.04;53.87;102374.77;462048;114;922566;-70
2023/01/22 02:59:19;;;;;;;7.23;2.65;;;;;;;3.05;54.00;102375.63;460187;115;922410;-69
2023/01/22 03:00:22;;;;;;;2.79;2.41;;;;;;;3.07;53.97;102379.06;461443;114;922599;-70
2023/01/22 03:01:26;;;;;;;5.83;2.85;;;;;;;3.09;54.06;102377.12;455893;114;922557;-71
2023/01/22 03:02:29;;;;;;;5.27;2.33;;;;;;;3.10;54.02;102381.50;454704;115;922637;-71
2023/01/22 03:03:32;;;;;;;6.21;2.43;;;;;;;3.11;54.05;102378.70;453882;117;930464;-71
2023/01/22 03:04:35;;;;;;;5.08;2.42;;;;;;;3.13;54.03;102375.88;453939;117;922480;-69
2023/01/22 03:05:38;;;;;;;3.58;2.14;;;;;;;3.12;53.87;102375.02;459238;114;923350;-70
2023/01/22 03:06:44;;;;;;;4.67;2.17;;;;;;;3.12;53.91;102377.72;461763;115;922976;-70
2023/01/22 03:07:47;;;;;;;5.33;2.36;;;;;;;3.13;53.83;102378.58;454275;115;922737;-69
2023/01/22 03:08:56;;;;;;;5.91;2.55;;;;;;;3.13;53.96;102367.80;451485;115;922493;-71
2023/01/22 03:09:59;;;;;;;3.50;2.30;;;;;;;3.13;53.95;102376.75;454310;115;922633;-69
2023/01/22 03:11:03;;;;;;;3.81;2.42;;;;;;;3.15;53.84;102381.98;453870;114;922815;-69
2023/01/22 03:12:06;;;;;;;5.35;2.42;;;;;;;3.15;53.91;102381.98;453093;115;930467;-71
2023/01/22 03:21:20;;;;;;;5.17;2.64;;;;;;;3.07;53.92;102387.16;453626;114;922896;-70
2023/01/22 03:22:23;;;;;;;5.12;2.77;;;;;;;3.06;54.02;102388.12;453776;117;922472;-70
2023/01/22 03:23:27;;;;;;;4.11;2.84;;;;;;;3.07;53.97;102381.77;453919;117;922826;-69
2023/01/22 03:24:31;;;;;;;5.84;2.75;;;;;;;3.07;54.03;102381.77;453711;115;922820;-72
2023/01/22 03:25:35;;;;;;;7.50;2.63;;;;;;;3.07;53.99;102385.31;451614;117;922630;-70
2023/01/22 03:26:38;;;;;;;4.27;2.77;;;;;;;3.08;53.96;102391.56;453954;115;922591;-71
2023/01/22 03:28:07;;;;;;;5.87;2.97;;;;;;;3.08;53.90;102391.56;461935;115;922902;-70
2023/01/22 03:28:47;;;;;;;4.82;2.43;;;;;;;3.07;53.87;102390.70;457956;115;922497;-70
2023/01/22 03:29:51;;;;;;;4.52;2.79;;;;;;;3.08;53.85;102388.88;459002;115;922857;-69
2023/01/22 03:30:54;;;;;;;5.06;2.77;;;;;;;3.09;53.91;102388.73;458599;115;922888;-70
2023/01/22 03:31:58;;;;;;;5.46;2.63;;;;;;;3.09;53.85;102390.59;449333;117;930598;-71
2023/01/22 03:33:01;;;;;;;5.89;2.45;;;;;;;3.10;53.92;102393.14;446225;117;922719;-70
2023/01/22 03:34:04;;;;;;;4.62;2.65;;;;;;;3.10;53.82;102392.28;445785;117;926548;-70
2023/01/22 03:35:08;;;;;;;11.65;3.11;;;;;;;3.10;53.90;102393.14;445875;117;922567;-71
2023/01/22 03:36:14;;;;;;;4.67;2.53;;;;;;;3.09;53.93;102394.12;454188;115;922465;-69
2023/01/22 03:37:19;;;;;;;5.16;2.42;;;;;;;3.09;53.83;102396.81;461341;115;922529;-70
2023/01/22 03:38:22;;;;;;;4.18;2.60;;;;;;;3.10;53.90;102393.14;461822;115;922877;-70
2023/01/22 03:39:26;;;;;;;5.67;2.83;;;;;;;3.11;53.94;102394.86;461785;115;922593;-70
2023/01/22 03:40:29;;;;;;;8.22;3.55;;;;;;;3.11;53.83;102394.00;460634;115;922465;-70
2023/01/22 03:41:32;;;;;;;3.99;3.02;;;;;;;3.10;53.78;102393.14;461935;115;922911;-71
2023/01/22 03:42:35;;;;;;;4.84;3.24;;;;;;;3.10;53.81;102397.67;454178;115;922854;-69
2023/01/22 03:43:39;;;;;;;5.79;2.63;;;;;;;3.10;53.92;102401.23;450959;117;922521;-71
2023/01/22 03:44:42;;;;;;;7.89;2.31;;;;;;;3.11;53.86;102404.78;445913;117;922547;-71
2023/01/22 03:45:46;;;;;;;5.34;2.95;;;;;;;3.12;53.85;102403.81;453726;115;922486;-71
2023/01/22 03:46:50;;;;;;;6.05;2.71;;;;;;;3.11;53.89;102402.95;460775;115;924324;-70
2023/01/22 03:47:54;;;;;;;5.71;2.69;;;;;;;3.12;53.85;102404.67;451793;115;930589;-68
2023/01/22 03:48:58;;;;;;;9.63;3.26;;;;;;;3.12;53.92;102404.67;450298;117;922466;-69
2023/01/22 03:50:02;;;;;;;5.47;3.00;;;;;;;3.12;53.84;102407.37;452150;115;922479;-71
2023/01/22 03:51:08;;;;;;;6.08;3.03;;;;;;;3.11;53.89;102405.64;456623;115;922511;-69
2023/01/22 03:52:12;;;;;;;6.17;3.67;;;;;;;3.12;53.83;102406.50;452065;114;930572;-70
2023/01/22 03:53:15;;;;;;;4.32;3.46;;;;;;;3.11;53.94;102408.34;451125;117;922674;-71
2023/01/22 03:54:18;;;;;;;4.31;2.91;;;;;;;3.11;53.87;102410.17;447533;117;922731;-71
2023/01/22 03:55:21;;;;;;;4.74;3.12;;;;;;;3.10;53.82;102405.76;455396;115;922490;-70
2023/01/22 03:56:26;;;;;;;4.58;2.91;;;;;;;3.11;53.81;102410.17;454435;115;922525;-71
2023/01/22 03:57:31;;;;;;;6.12;3.07;;;;;;;3.10;53.84;102414.70;451281;115;922531;-70
2023/01/22 03:58:34;;;;;;;9.93;2.79;;;;;;;3.10;53.81;102411.15;451943;116;922973;-70
2023/01/22 03:59:38;;;;;;;5.91;3.35;;;;;;;3.07;53.77;102409.57;451075;115;923030;-70
2023/01/22 04:00:41;;;;;;;3.99;2.89;;;;;;;3.06;53.82;102401.60;459151;115;922973;-72
2023/01/22 04:01:44;;;;;;;6.20;2.77;;;;;;;3.05;53.86;102407.96;457353;114;922467;-71
2023/01/22 04:02:48;;;;;;;5.87;2.73;;;;;;;3.05;53.96;102413.35;459991;115;922469;-70
2023/01/22 04:03:53;;;;;;;5.14;2.98;;;;;;;3.05;53.88;102418.74;457958;114;922562;-69
2023/01/22 04:04:58;;;;;;;6.74;2.92;;;;;;;3.04;53.90;102411.63;457691;114;922501;-70
2023/01/22 04:06:03;;;;;;;6.60;3.85;;;;;;;3.04;54.04;102412.48;458004;116;922482;-71
2023/01/22 04:07:06;;;;;;;13.86;3.43;;;;;;;3.04;53.94;102415.19;459201;114;923101;-71
2023/01/22 04:08:09;;;;;;;8.25;3.13;;;;;;;3.04;53.90;102420.58;464522;113;922715;-68
2023/01/22 04:09:14;;;;;;;8.47;3.28;;;;;;;3.03;53.99;102418.89;462125;114;922462;-70
2023/01/22 04:10:19;;;;;;;9.32;3.80;;;;;;;3.04;54.07;102419.72;459097;113;922705;-70
2023/01/22 04:11:23;;;;;;;5.30;3.22;;;;;;;3.03;54.11;102416.19;466107;114;922498;-71
2023/01/22 04:12:26;;;;;;;6.57;3.21;;;;;;;3.02;54.05;102417.16;465870;114;922501;-70
2023/01/22 04:13:32;;;;;;;6.49;3.40;;;;;;;3.02;54.17;102421.70;457640;115;922540;-70
2023/01/22 04:14:35;;;;;;;8.37;2.93;;;;;;;3.01;54.15;102420.83;458202;115;922912;-70
2023/01/22 04:15:44;;;;;;;8.99;3.46;;;;;;;3.00;54.23;102419.11;461935;114;922415;-70
2023/01/22 04:16:49;;;;;;;6.34;2.78;;;;;;;2.99;54.20;102412.00;455030;116;930512;-69
2023/01/22 04:18:06;;;;;;;4.46;2.86;;;;;;;2.98;54.22;102412.14;455334;115;922550;-70
2023/01/22 04:19:11;;;;;;;10.41;3.12;;;;;;;2.96;54.41;102412.25;456745;115;922524;-70
2023/01/22 04:20:25;;;;;;;6.04;3.27;;;;;;;2.95;54.37;102413.23;461547;113;922833;-70
2023/01/22 04:21:35;;;;;;;3.38;2.76;;;;;;;2.96;54.44;102419.48;464899;114;922515;-70
2023/01/22 04:22:40;;;;;;;8.31;3.19;;;;;;;2.96;54.54;102414.09;463795;114;922962;-70
2023/01/22 04:23:45;;;;;;;6.74;3.17;;;;;;;2.96;54.49;102414.09;458112;115;922517;-70
2023/01/22 04:24:49;;;;;;;5.34;2.80;;;;;;;2.97;54.57;102416.67;457281;115;922689;-70
2023/01/22 04:25:52;;;;;;;7.41;3.47;;;;;;;2.97;54.52;102413.12;465495;114;922533;-70
2023/01/22 04:26:55;;;;;;;6.86;3.05;;;;;;;2.97;54.46;102413.98;466047;114;922410;-70
2023/01/22 04:27:59;;;;;;;7.32;3.27;;;;;;;2.98;54.52;102417.53;466165;114;922610;-70
2023/01/22 04:29:02;;;;;;;6.17;3.22;;;;;;;2.98;54.60;102420.23;460128;113;923007;-70
2023/01/22 04:30:06;;;;;;;5.08;3.06;;;;;;;2.97;54.59;102419.37;459442;113;922810;-70
2023/01/22 04:31:10;;;;;;;4.99;2.69;;;;;;;2.98;54.65;102425.62;465984;114;922744;-71
2023/01/22 04:32:26;;;;;;;8.81;3.34;;;;;;;2.97;54.65;102423.89;449372;118;930784;-71
2023/01/22 04:33:34;;;;;;;6.39;3.31;;;;;;;2.97;54.55;102426.59;453950;113;923564;-71
2023/01/22 04:34:43;;;;;;;7.61;3.56;;;;;;;2.94;54.55;102419.59;457675;115;922884;-71
2023/01/22 04:35:52;;;;;;;4.13;3.04;;;;;;;2.91;54.58;102428.79;464355;113;922484;-71
2023/01/22 04:36:55;;;;;;;7.32;3.77;;;;;;;2.91;54.62;102431.48;457971;116;922468;-71
2023/01/22 04:38:01;;;;;;;7.42;3.53;;;;;;;2.89;54.60;102425.34;458782;114;922373;-71
2023/01/22 04:39:04;;;;;;;20.77;3.76;;;;;;;2.88;54.65;102422.77;461908;114;922867;-70
2023/01/22 04:40:09;;;;;;;8.54;3.67;;;;;;;2.88;54.68;102429.02;459867;114;930618;-70
2023/01/22 04:41:13;;;;;;;9.35;3.42;;;;;;;2.88;54.72;102425.45;463664;114;922396;-71
2023/01/22 04:42:17;;;;;;;5.94;3.13;;;;;;;2.86;54.72;102428.30;456698;116;923016;-71
2023/01/22 04:43:20;;;;;;;9.11;3.24;;;;;;;2.85;54.74;102425.70;456696;116;922465;-71
2023/01/22 04:44:23;;;;;;;13.87;3.27;;;;;;;2.82;54.68;102431.32;457710;115;922486;-71
2023/01/22 04:45:26;;;;;;;10.04;3.77;;;;;;;2.79;54.79;102428.88;461655;113;922351;-70
2023/01/22 04:46:30;;;;;;;7.09;3.41;;;;;;;2.75;54.72;102428.27;461984;114;922706;-71
2023/01/22 04:47:34;;;;;;;6.92;3.37;;;;;;;2.72;54.84;102433.87;457573;114;930496;-70
2023/01/22 04:48:37;;;;;;;8.71;4.37;;;;;;;2.71;54.82;102432.16;458056;115;922371;-70
2023/01/22 04:49:40;;;;;;;7.60;3.87;;;;;;;2.70;54.92;102440.37;458380;115;922820;-72
2023/01/22 04:50:45;;;;;;;8.48;4.03;;;;;;;2.68;54.98;102440.48;462356;114;922772;-70
2023/01/22 04:51:49;;;;;;;11.72;4.39;;;;;;;2.68;54.91;102436.94;456543;116;922465;-70
2023/01/22 04:52:54;;;;;;;10.03;4.00;;;;;;;2.65;54.94;102440.70;449010;117;923038;-69
2023/01/22 04:53:57;;;;;;;16.04;3.76;;;;;;;2.64;55.04;102441.71;448865;116;930526;-69
2023/01/22 04:55:00;;;;;;;11.06;3.72;;;;;;;2.64;55.09;102444.41;458311;113;922558;-71
2023/01/22 04:56:05;;;;;;;10.19;3.71;;;;;;;2.63;55.25;102439.98;457789;116;922583;-70
2023/01/22 04:57:10;;;;;;;8.24;4.34;;;;;;;2.63;55.29;102449.90;458059;114;922585;-71
2023/01/22 04:58:13;;;;;;;11.84;4.21;;;;;;;2.64;55.29;102448.92;456328;116;922557;-71
2023/01/22 04:59:16;;;;;;;11.49;4.31;;;;;;;2.64;55.45;102452.48;456441;114;922481;-71
2023/01/22 05:00:19;;;;;;;8.42;4.76;;;;;;;2.64;55.41;102455.17;462648;114;922419;-70
2023/01/22 05:01:23;;;;;;;9.43;4.07;;;;;;;2.66;55.48;102463.97;460365;115;922485;-70
2023/01/22 05:02:26;;;;;;;9.03;4.38;;;;;;;2.67;55.50;102454.92;461403;114;930529;-70
2023/01/22 05:03:29;;;;;;;10.82;4.22;;;;;;;2.68;55.58;102462.03;460720;114;922836;-70
2023/01/22 05:04:32;;;;;;;8.83;3.99;;;;;;;2.67;55.60;102462.14;460635;114;922769;-71
2023/01/22 05:05:35;;;;;;;8.34;5.07;;;;;;;2.67;55.54;102464.84;463937;113;922432;-70
2023/01/22 05:06:39;;;;;;;13.14;5.37;;;;;;;2.66;55.58;102466.66;465132;114;922760;-70
2023/01/22 05:07:43;;;;;;;9.23;5.02;;;;;;;2.64;55.66;102463.25;464993;114;922829;-70